createdAt,value
2018-09-18T00:00:53.278Z,50.20
2018-09-18T00:03:24.039Z,50.50
2018-09-18T00:05:55.419Z,50.90
2018-09-18T00:08:25.810Z,51.20
2018-09-18T00:10:56.171Z,51.40
2018-09-18T00:13:26.507Z,51.20
2018-09-18T00:15:56.771Z,51.10
2018-09-18T00:18:30.430Z,51.10
2018-09-18T00:21:00.906Z,51.20
2018-09-18T00:23:33.198Z,51.50
2018-09-18T00:26:03.710Z,51.70
2018-09-18T00:28:34.374Z,51.80
2018-09-18T00:31:04.863Z,51.80
2018-09-18T00:33:35.834Z,51.60
2018-09-18T00:36:06.971Z,51.80
2018-09-18T00:38:37.678Z,52.10
2018-09-18T00:41:08.094Z,52.60
2018-09-18T00:43:38.410Z,52.90
2018-09-18T00:46:09.305Z,52.90
2018-09-18T00:48:39.925Z,53.00
2018-09-18T00:51:10.243Z,52.90
2018-09-18T00:53:41.050Z,52.80
2018-09-18T00:56:11.401Z,53.20
2018-09-18T00:58:42.077Z,53.20
2018-09-18T01:01:12.616Z,53.10
2018-09-18T01:03:43.038Z,53.20
2018-09-18T01:06:13.949Z,53.00
2018-09-18T01:08:44.311Z,52.80
2018-09-18T01:11:14.913Z,52.60
2018-09-18T01:13:45.237Z,52.80
2018-09-18T01:16:15.527Z,53.30
2018-09-18T01:18:50.527Z,53.50
2018-09-18T01:21:22.954Z,53.50
2018-09-18T01:23:55.034Z,53.50
2018-09-18T01:26:27.677Z,53.40
2018-09-18T01:28:59.094Z,53.30
2018-09-18T01:31:33.154Z,53.40
2018-09-18T01:34:04.071Z,53.60
2018-09-18T01:36:34.376Z,53.80
2018-09-18T01:39:09.813Z,53.70
2018-09-18T01:41:43.097Z,53.90
2018-09-18T01:44:14.199Z,54.00
2018-09-18T01:46:46.479Z,54.20
2018-09-18T01:49:17.040Z,54.20
2018-09-18T01:51:52.684Z,54.30
2018-09-18T01:54:25.523Z,54.20
2018-09-18T01:57:02.149Z,54.10
2018-09-18T01:59:35.890Z,53.90
2018-09-18T02:02:08.857Z,53.70
2018-09-18T02:04:43.166Z,54.40
2018-09-18T02:07:19.053Z,54.30
2018-09-18T02:09:53.566Z,54.70
2018-09-18T02:15:31.166Z,55.50
2018-09-18T02:18:04.503Z,55.50
2018-09-18T02:20:38.258Z,55.90
2018-09-18T02:23:08.732Z,56.00
2018-09-18T02:25:38.982Z,56.10
2018-09-18T02:28:09.361Z,56.30
2018-09-18T02:30:39.851Z,56.50
2018-09-18T02:33:10.144Z,56.50
2018-09-18T02:35:40.978Z,56.60
2018-09-18T02:38:11.294Z,56.60
2018-09-18T02:40:42.069Z,56.50
2018-09-18T02:43:12.462Z,56.60
2018-09-18T02:45:42.893Z,56.80
2018-09-18T02:48:13.238Z,57.00
2018-09-18T02:50:44.045Z,57.30
2018-09-18T02:53:14.322Z,57.20
2018-09-18T02:55:44.884Z,57.20
2018-09-18T02:58:15.287Z,57.00
2018-09-18T03:00:45.589Z,56.80
2018-09-18T03:03:16.054Z,56.80
2018-09-18T03:05:46.731Z,56.90
2018-09-18T03:08:16.995Z,57.00
2018-09-18T03:10:47.607Z,57.10
2018-09-18T03:13:17.855Z,57.30
2018-09-18T03:15:48.201Z,57.60
2018-09-18T03:18:18.649Z,58.30
2018-09-18T03:20:48.963Z,57.80
2018-09-18T03:23:19.297Z,58.00
2018-09-18T03:25:50.084Z,58.00
2018-09-18T03:28:20.430Z,58.20
2018-09-18T03:30:50.720Z,58.50
2018-09-18T03:33:21.233Z,58.60
2018-09-18T03:35:51.622Z,58.60
2018-09-18T03:38:21.954Z,58.50
2018-09-18T03:40:52.300Z,58.50
2018-09-18T03:43:22.734Z,58.60
2018-09-18T03:45:52.982Z,58.70
2018-09-18T03:48:23.523Z,58.70
2018-09-18T03:50:53.779Z,58.50
2018-09-18T03:53:24.164Z,58.50
2018-09-18T03:55:54.498Z,58.50
2018-09-18T03:58:24.870Z,58.60
2018-09-18T04:00:55.162Z,58.80
2018-09-18T04:03:25.476Z,58.80
2018-09-18T04:05:55.779Z,59.00
2018-09-18T04:08:26.111Z,59.10
2018-09-18T04:10:56.760Z,58.80
2018-09-18T04:13:27.109Z,58.60
2018-09-18T04:15:57.372Z,58.40
2018-09-18T04:18:27.988Z,58.60
2018-09-18T04:20:58.266Z,58.60
2018-09-18T04:23:28.546Z,58.40
2018-09-18T04:25:58.826Z,58.50
2018-09-18T04:28:29.171Z,58.60
2018-09-18T04:30:59.471Z,58.70
2018-09-18T04:33:29.797Z,58.60
2018-09-18T04:36:00.148Z,58.50
2018-09-18T04:38:30.520Z,58.50
2018-09-18T04:41:00.839Z,58.50
2018-09-18T04:43:31.174Z,58.50
2018-09-18T04:46:01.472Z,58.50
2018-09-18T04:48:31.858Z,58.80
2018-09-18T04:51:02.205Z,59.00
2018-09-18T04:53:32.505Z,59.00
2018-09-18T04:56:02.839Z,59.20
2018-09-18T04:58:33.238Z,59.10
2018-09-18T05:01:03.973Z,59.00
2018-09-18T05:03:34.661Z,59.20
2018-09-18T05:06:04.995Z,59.20
2018-09-18T05:08:36.162Z,59.20
2018-09-18T05:11:06.726Z,59.30
2018-09-18T05:13:37.123Z,59.30
2018-09-18T05:16:08.098Z,59.30
2018-09-18T05:18:38.682Z,59.10
2018-09-18T05:21:09.042Z,59.30
2018-09-18T05:23:39.408Z,59.30
2018-09-18T05:26:09.681Z,59.10
2018-09-18T05:28:40.114Z,59.30
2018-09-18T05:31:10.674Z,59.50
2018-09-18T05:33:42.939Z,59.60
2018-09-18T05:36:14.925Z,59.80
2018-09-18T05:39:17.013Z,59.70
2018-09-18T05:41:47.683Z,59.90
2018-09-18T05:44:41.171Z,60.00
2018-09-18T05:47:16.198Z,59.90
2018-09-18T05:49:48.701Z,59.80
2018-09-18T05:52:19.738Z,59.90
2018-09-18T05:54:50.082Z,59.80
2018-09-18T05:57:20.365Z,59.30
2018-09-18T05:59:51.035Z,59.00
2018-09-18T06:02:21.368Z,59.00
2018-09-18T06:04:52.081Z,58.80
2018-09-18T06:07:22.330Z,58.50
2018-09-18T06:09:52.686Z,58.30
2018-09-18T06:12:23.027Z,57.60
2018-09-18T06:14:54.538Z,57.40
2018-09-18T06:17:24.873Z,57.30
2018-09-18T06:19:55.341Z,57.00
2018-09-18T06:22:25.942Z,56.70
2018-09-18T06:24:56.372Z,56.20
2018-09-18T06:27:27.032Z,56.00
2018-09-18T06:29:57.495Z,56.20
2018-09-18T06:32:27.939Z,55.90
2018-09-18T06:34:58.447Z,55.90
2018-09-18T06:37:28.840Z,55.40
2018-09-18T06:39:59.274Z,55.20
2018-09-18T06:42:36.649Z,55.00
2018-09-18T06:45:07.891Z,54.40
2018-09-18T06:47:38.754Z,53.90
2018-09-18T06:50:09.090Z,53.80
2018-09-18T06:52:39.498Z,53.40
2018-09-18T06:55:09.758Z,53.40
2018-09-18T06:57:40.361Z,53.10
2018-09-18T07:00:10.664Z,52.40
2018-09-18T07:02:40.999Z,52.30
2018-09-18T07:05:11.369Z,52.40
2018-09-18T07:07:42.059Z,51.80
2018-09-18T07:10:12.459Z,51.70
2018-09-18T07:12:42.730Z,51.20
2018-09-18T07:15:13.038Z,50.90
2018-09-18T07:17:43.291Z,50.60
2018-09-18T07:20:13.614Z,51.10
2018-09-18T07:22:44.334Z,50.70
2018-09-18T07:25:15.510Z,50.60
2018-09-18T07:27:45.758Z,50.20
2018-09-18T07:30:19.179Z,50.40
2018-09-18T07:32:51.458Z,50.80
2018-09-18T07:35:40.038Z,50.30
2018-09-18T07:38:10.898Z,49.90
2018-09-18T07:40:41.715Z,49.70
2018-09-18T07:43:13.534Z,49.60
2018-09-18T07:45:44.027Z,49.40
2018-09-18T07:48:14.749Z,49.70
2018-09-18T07:50:45.082Z,49.20
2018-09-18T07:53:15.422Z,49.20
2018-09-18T07:55:45.803Z,49.30
2018-09-18T07:58:16.156Z,48.60
2018-09-18T08:00:46.481Z,47.70
2018-09-18T08:03:16.900Z,46.90
2018-09-18T08:05:47.250Z,46.20
2018-09-18T08:08:17.803Z,46.10
2018-09-18T08:10:48.511Z,45.80
2018-09-18T08:13:18.936Z,45.20
2018-09-18T08:15:49.234Z,44.40
2018-09-18T08:18:19.603Z,43.70
2018-09-18T08:20:50.335Z,43.50
2018-09-18T08:23:20.654Z,42.90
2018-09-18T08:25:51.659Z,42.30
2018-09-18T08:28:21.956Z,42.30
2018-09-18T08:30:52.479Z,41.10
2018-09-18T08:33:23.226Z,40.10
2018-09-18T08:35:53.526Z,40.00
2018-09-18T08:38:23.908Z,39.30
2018-09-18T08:40:54.454Z,39.80
2018-09-18T08:43:25.134Z,38.60
2018-09-18T08:45:55.504Z,38.00
2018-09-18T08:48:29.586Z,38.10
2018-09-18T08:51:01.168Z,37.90
2018-09-18T08:53:32.571Z,37.40
2018-09-18T08:56:02.821Z,36.50
2018-09-18T08:58:33.163Z,36.10
2018-09-18T09:01:03.448Z,35.90
2018-09-18T09:03:34.269Z,36.00
2018-09-18T09:06:05.060Z,35.50
2018-09-18T09:08:35.486Z,34.80
2018-09-18T09:11:05.913Z,34.90
2018-09-18T09:13:41.883Z,34.70
2018-09-18T09:16:12.205Z,34.40
2018-09-18T09:18:42.654Z,34.30
2018-09-18T09:21:13.030Z,34.00
2018-09-18T09:23:43.765Z,33.20
2018-09-18T09:26:14.043Z,32.60
2018-09-18T09:28:44.778Z,32.50
2018-09-18T09:31:15.109Z,32.30
2018-09-18T09:33:45.451Z,32.50
2018-09-18T09:36:15.836Z,31.20
2018-09-18T09:38:46.217Z,31.10
2018-09-18T09:41:16.573Z,29.90
2018-09-18T09:43:47.488Z,29.20
2018-09-18T09:46:18.155Z,29.50
2018-09-18T09:48:48.527Z,28.20
2018-09-18T09:51:18.904Z,28.00
2018-09-18T09:53:49.157Z,26.80
2018-09-18T09:56:19.407Z,26.30
2018-09-18T09:58:50.013Z,26.10
2018-09-18T10:01:25.681Z,25.20
2018-09-18T10:03:56.709Z,24.60
2018-09-18T10:06:27.396Z,23.70
2018-09-18T10:08:57.742Z,23.00
2018-09-18T10:11:28.083Z,23.90
2018-09-18T10:13:58.361Z,21.90
2018-09-18T10:16:28.734Z,21.40
2018-09-18T10:19:02.325Z,21.70
2018-09-18T10:21:34.432Z,20.80
2018-09-18T10:24:05.080Z,20.80
2018-09-18T10:26:37.063Z,20.60
2018-09-18T10:29:07.844Z,20.30
2018-09-18T10:31:40.469Z,20.10
2018-09-18T10:34:10.861Z,20.70
2018-09-18T10:36:41.379Z,19.80
2018-09-18T10:39:12.929Z,19.40
2018-09-18T10:41:46.524Z,19.40
2018-09-18T10:44:18.226Z,19.60
2018-09-18T10:46:50.133Z,18.80
2018-09-18T10:49:20.635Z,18.50
2018-09-18T10:51:53.047Z,19.50
2018-09-18T10:57:32.447Z,20.00
2018-09-18T11:00:02.817Z,19.90
2018-09-18T11:02:34.184Z,18.90
2018-09-18T11:05:08.045Z,18.70
2018-09-18T11:07:39.250Z,18.30
2018-09-18T11:10:10.358Z,18.40
2018-09-18T11:12:43.565Z,18.20
2018-09-18T11:15:16.136Z,18.50
2018-09-18T11:17:48.369Z,18.80
2018-09-18T11:20:20.969Z,19.40
2018-09-18T11:22:54.317Z,19.00
2018-09-18T11:25:24.704Z,19.30
2018-09-18T11:27:55.141Z,20.30
2018-09-18T11:30:25.608Z,21.60
2018-09-18T11:32:56.102Z,21.30
2018-09-18T11:35:26.864Z,19.80
2018-09-18T11:37:57.206Z,19.30
2018-09-18T11:40:27.861Z,19.20
2018-09-18T11:42:58.148Z,19.50
2018-09-18T11:45:28.449Z,20.30
2018-09-18T11:47:58.837Z,20.60
2018-09-18T11:50:30.719Z,20.40
2018-09-18T11:53:11.925Z,19.70
2018-09-18T11:55:49.555Z,18.70
2018-09-18T11:58:26.652Z,18.00
2018-09-18T12:00:59.326Z,17.00
2018-09-18T12:03:32.566Z,16.70
2018-09-18T12:06:18.474Z,16.60
2018-09-18T12:08:48.950Z,15.80
2018-09-18T12:11:19.700Z,16.30
2018-09-18T12:13:51.846Z,15.60
2018-09-18T12:16:22.955Z,16.40
2018-09-18T12:18:53.959Z,17.20
2018-09-18T12:21:24.514Z,18.00
2018-09-18T12:23:54.836Z,16.40
2018-09-18T12:26:27.509Z,14.80
2018-09-18T12:29:03.805Z,14.80
2018-09-18T12:31:38.841Z,14.60
2018-09-18T12:34:10.199Z,14.70
2018-09-18T12:36:43.982Z,14.00
2018-09-18T12:39:18.752Z,14.30
2018-09-18T12:42:13.751Z,14.90
2018-09-18T12:44:45.785Z,13.30
2018-09-18T12:47:16.074Z,12.00
2018-09-18T12:49:46.829Z,11.00
2018-09-18T12:52:18.130Z,10.60
2018-09-18T12:54:48.443Z,11.00
2018-09-18T12:57:18.883Z,12.80
2018-09-18T12:59:49.364Z,13.60
2018-09-18T13:02:19.703Z,14.10
2018-09-18T13:04:50.111Z,15.10
2018-09-18T13:07:20.395Z,15.10
2018-09-18T13:09:50.760Z,14.70
2018-09-18T13:12:21.082Z,15.00
2018-09-18T13:14:51.565Z,14.80
2018-09-18T13:17:21.904Z,14.90
2018-09-18T13:19:52.535Z,14.80
2018-09-18T13:22:22.855Z,14.60
2018-09-18T13:24:53.145Z,14.80
2018-09-18T13:27:24.529Z,15.60
2018-09-18T13:29:55.895Z,15.20
2018-09-18T13:35:35.162Z,13.70
2018-09-18T13:38:06.042Z,12.80
2018-09-18T13:40:37.068Z,11.70
2018-09-18T13:43:10.960Z,10.60
2018-09-18T13:45:42.104Z,10.50
2018-09-18T13:48:13.430Z,10.90
2018-09-18T13:50:46.863Z,10.60
2018-09-18T13:53:20.065Z,10.40
2018-09-18T13:55:51.969Z,10.10
2018-09-18T13:58:23.356Z,9.20
2018-09-18T14:00:59.483Z,9.30
2018-09-18T14:03:43.111Z,9.50
2018-09-18T14:06:15.605Z,9.70
2018-09-18T14:08:47.156Z,10.70
2018-09-18T14:11:19.047Z,10.30
2018-09-18T14:13:57.882Z,10.40
2018-09-18T14:16:29.708Z,10.70
2018-09-18T14:19:01.021Z,10.00
2018-09-18T14:21:34.306Z,10.40
2018-09-18T14:24:11.449Z,10.30
2018-09-18T14:26:48.176Z,10.10
2018-09-18T14:29:19.703Z,10.60
2018-09-18T14:31:51.430Z,11.00
2018-09-18T14:34:23.026Z,11.40
2018-09-18T14:36:54.035Z,10.90
2018-09-18T14:39:25.747Z,11.20
2018-09-18T14:41:56.862Z,10.90
2018-09-18T14:44:28.581Z,10.80
2018-09-18T14:46:59.794Z,11.00
2018-09-18T14:49:56.776Z,11.70
2018-09-18T14:52:33.868Z,11.80
2018-09-18T14:55:06.566Z,11.40
2018-09-18T14:57:38.277Z,12.30
2018-09-18T15:00:11.221Z,12.40
2018-09-18T15:02:43.051Z,12.00
2018-09-18T15:05:13.907Z,12.50
2018-09-18T15:07:44.919Z,13.00
2018-09-18T15:10:15.487Z,13.20
2018-09-18T15:12:46.079Z,14.30
2018-09-18T15:15:16.556Z,14.70
2018-09-18T15:17:51.135Z,14.90
2018-09-18T15:20:22.072Z,16.10
2018-09-18T15:22:53.203Z,17.60
2018-09-18T15:25:25.589Z,18.30
2018-09-18T15:27:58.188Z,19.30
2018-09-18T15:30:30.654Z,20.10
2018-09-18T15:33:01.593Z,21.50
2018-09-18T15:35:32.452Z,22.50
2018-09-18T15:38:05.611Z,23.20
2018-09-18T15:40:39.293Z,23.60
2018-09-18T15:43:10.902Z,24.00
2018-09-18T15:45:46.243Z,23.90
2018-09-18T15:48:16.566Z,23.50
2018-09-18T15:50:47.837Z,22.60
2018-09-18T15:53:19.063Z,22.10
2018-09-18T15:55:50.613Z,21.00
2018-09-18T15:58:22.533Z,20.30
2018-09-18T16:00:53.811Z,20.70
2018-09-18T16:03:25.248Z,21.20
2018-09-18T16:05:57.264Z,21.80
2018-09-18T16:08:29.696Z,21.00
2018-09-18T16:11:00.961Z,20.70
2018-09-18T16:13:32.329Z,21.50
2018-09-18T16:16:03.397Z,21.90
2018-09-18T16:18:34.624Z,21.50
2018-09-18T16:21:09.425Z,21.90
2018-09-18T16:23:40.381Z,21.90
2018-09-18T16:26:12.270Z,21.30
2018-09-18T16:28:44.026Z,21.70
2018-09-18T16:31:16.507Z,22.20
2018-09-18T16:33:48.100Z,21.90
2018-09-18T16:36:23.198Z,23.50
2018-09-18T16:38:56.662Z,24.50
2018-09-18T16:41:27.789Z,25.80
2018-09-18T16:43:59.071Z,26.70
2018-09-18T16:46:30.598Z,27.80
2018-09-18T16:49:04.309Z,29.40
2018-09-18T16:51:35.002Z,29.90
2018-09-18T16:54:06.078Z,31.10
2018-09-18T16:56:38.979Z,32.00
2018-09-18T16:59:09.504Z,32.80
2018-09-18T17:01:40.398Z,33.60
2018-09-18T17:04:10.697Z,34.30
2018-09-18T17:06:41.064Z,34.40
2018-09-18T17:09:11.322Z,34.90
2018-09-18T17:11:42.261Z,35.20
2018-09-18T17:14:12.605Z,35.70
2018-09-18T17:16:43.040Z,36.40
2018-09-18T17:19:13.311Z,36.80
2018-09-18T17:21:43.702Z,36.40
2018-09-18T17:24:14.022Z,36.90
2018-09-18T17:26:44.389Z,37.00
2018-09-18T17:29:14.810Z,37.10
2018-09-18T17:31:45.282Z,37.60
2018-09-18T17:34:15.643Z,38.40
2018-09-18T17:36:46.119Z,38.90
2018-09-18T17:39:16.654Z,39.20
2018-09-18T17:41:52.281Z,39.70
2018-09-18T17:44:23.685Z,39.60
2018-09-18T17:46:54.006Z,39.70
2018-09-18T17:49:24.427Z,39.80
2018-09-18T17:51:55.248Z,39.70
2018-09-18T17:54:26.537Z,40.00
2018-09-18T17:56:58.173Z,40.20
2018-09-18T17:59:28.532Z,40.30
2018-09-18T18:01:59.062Z,40.60
2018-09-18T18:04:29.509Z,41.00
2018-09-18T18:06:59.819Z,41.30
2018-09-18T18:09:30.242Z,41.20
2018-09-18T18:12:00.706Z,41.00
2018-09-18T18:14:32.694Z,40.80
2018-09-18T18:17:04.053Z,41.00
2018-09-18T18:19:35.034Z,41.00
2018-09-18T18:22:05.421Z,41.20
2018-09-18T18:24:36.505Z,42.00
2018-09-18T18:27:07.061Z,42.30
2018-09-18T18:29:38.049Z,42.20
2018-09-18T18:32:08.553Z,42.50
2018-09-18T18:34:39.056Z,42.60
2018-09-18T18:37:09.306Z,43.00
2018-09-18T18:39:40.866Z,43.10
2018-09-18T18:42:12.707Z,42.80
2018-09-18T18:44:43.057Z,42.90
2018-09-18T18:47:13.424Z,43.20
2018-09-18T18:49:43.884Z,43.20
2018-09-18T18:52:16.474Z,43.30
2018-09-18T18:54:54.183Z,43.40
2018-09-18T18:57:25.174Z,43.70
2018-09-18T18:59:56.042Z,43.90
2018-09-18T19:02:27.962Z,43.80
2018-09-18T19:05:01.702Z,43.60
2018-09-18T19:07:38.573Z,44.20
2018-09-18T19:10:09.084Z,44.10
2018-09-18T19:12:39.717Z,44.10
2018-09-18T19:15:10.258Z,43.30
2018-09-18T19:17:46.884Z,42.70
2018-09-18T19:20:18.893Z,42.60
2018-09-18T19:22:50.624Z,43.30
2018-09-18T19:25:21.764Z,43.50
2018-09-18T19:27:55.061Z,43.40
2018-09-18T19:30:27.027Z,39.60
2018-09-18T19:33:01.493Z,39.10
2018-09-18T19:35:34.688Z,39.00
2018-09-18T19:38:10.267Z,39.40
2018-09-18T19:40:42.025Z,39.80
2018-09-18T19:43:14.348Z,39.10
2018-09-18T19:46:04.174Z,39.60
2018-09-18T19:48:55.066Z,40.20
2018-09-18T19:51:30.243Z,41.10
2018-09-18T19:54:10.044Z,41.90
2018-09-18T19:56:45.827Z,42.10
2018-09-18T19:59:18.386Z,42.30
2018-09-18T20:01:49.318Z,42.20
2018-09-18T20:04:21.153Z,42.30
2018-09-18T20:06:57.156Z,42.00
2018-09-18T20:09:29.332Z,42.80
2018-09-18T20:12:02.337Z,42.30
2018-09-18T20:14:33.099Z,43.20
2018-09-18T20:17:04.371Z,43.70
2018-09-18T20:19:35.058Z,44.00
2018-09-18T20:22:06.651Z,44.30
2018-09-18T20:24:38.069Z,44.00
2018-09-18T20:27:09.452Z,44.00
2018-09-18T20:29:40.603Z,45.30
2018-09-18T20:32:10.901Z,45.40
2018-09-18T20:34:41.989Z,45.30
2018-09-18T20:37:12.393Z,45.50
2018-09-18T20:39:44.343Z,45.90
2018-09-18T20:42:16.722Z,46.50
2018-09-18T20:44:49.443Z,46.80
2018-09-18T20:47:20.403Z,46.90
2018-09-18T20:49:51.026Z,46.60
2018-09-18T20:52:21.415Z,46.70
2018-09-18T20:54:55.168Z,46.80
2018-09-18T20:57:29.779Z,46.90
2018-09-18T21:00:00.425Z,46.90
2018-09-18T21:02:31.687Z,46.90
2018-09-18T21:05:02.335Z,47.20
2018-09-18T21:07:32.646Z,47.20
2018-09-18T21:10:03.511Z,47.10
2018-09-18T21:12:34.159Z,49.90
2018-09-18T21:15:06.209Z,50.80
2018-09-18T21:17:37.589Z,51.10
2018-09-18T21:20:10.063Z,50.50
2018-09-18T21:22:40.625Z,49.80
2018-09-18T21:25:19.190Z,50.30
2018-09-18T21:27:58.409Z,51.30
2018-09-18T21:30:31.721Z,51.70
2018-09-18T21:33:02.713Z,52.00
2018-09-18T21:35:33.055Z,52.20
2018-09-18T21:38:04.034Z,52.00
2018-09-18T21:40:35.091Z,52.10
2018-09-18T21:43:05.965Z,52.10
2018-09-18T21:45:37.042Z,52.40
2018-09-18T21:48:08.006Z,53.40
2018-09-18T21:50:40.698Z,53.80
2018-09-18T21:53:13.243Z,53.40
2018-09-18T21:55:44.978Z,50.90
2018-09-18T21:58:15.536Z,52.50
2018-09-18T22:00:46.726Z,53.50
2018-09-18T22:03:17.057Z,54.90
2018-09-18T22:05:47.888Z,56.40
2018-09-18T22:08:18.276Z,57.60
2018-09-18T22:10:51.312Z,58.30
2018-09-18T22:13:28.104Z,58.30
2018-09-18T22:16:22.894Z,58.90
2018-09-18T22:18:54.897Z,58.80
2018-09-18T22:21:25.250Z,60.50
2018-09-18T22:23:55.561Z,62.00
2018-09-18T22:26:26.136Z,62.30
2018-09-18T22:28:57.571Z,61.90
2018-09-18T22:31:28.243Z,62.00
2018-09-18T22:33:59.087Z,61.60
2018-09-18T22:36:29.782Z,61.30
2018-09-18T22:39:00.553Z,60.80
2018-09-18T22:41:31.312Z,60.20
2018-09-18T22:44:02.016Z,59.30
2018-09-18T22:46:32.873Z,58.30
2018-09-18T22:49:03.632Z,58.00
2018-09-18T22:51:35.763Z,57.00
2018-09-18T22:54:07.289Z,57.10
2018-09-18T22:56:39.648Z,58.50
2018-09-18T22:59:10.703Z,58.20
2018-09-18T23:01:42.336Z,57.40
2018-09-18T23:04:13.770Z,58.60
2018-09-18T23:06:44.872Z,58.80
2018-09-18T23:09:15.358Z,57.90
2018-09-18T23:11:46.247Z,58.20
2018-09-18T23:14:16.659Z,57.70
2018-09-18T23:16:47.372Z,57.00
2018-09-18T23:19:18.746Z,57.20
2018-09-18T23:21:49.912Z,58.20
2018-09-18T23:24:20.817Z,58.00
2018-09-18T23:26:51.800Z,58.20
2018-09-18T23:29:23.175Z,57.70
2018-09-18T23:31:53.802Z,57.60
2018-09-18T23:34:24.905Z,57.00
2018-09-18T23:36:55.748Z,56.70
2018-09-18T23:39:26.760Z,56.50
2018-09-18T23:41:57.571Z,56.20
2018-09-18T23:44:29.205Z,56.00
2018-09-18T23:46:59.939Z,55.90
2018-09-18T23:49:30.803Z,56.40
2018-09-18T23:52:01.604Z,56.90
2018-09-18T23:54:32.543Z,57.20
2018-09-18T23:57:03.008Z,56.70
2018-09-18T23:59:33.713Z,56.00
